Погода Магдаленовона неделю

Подляское воеводство, Польша

15 - 21 июля
  • 15июля
    Сегодня
    +16°
    +27°
    Ясно и безоблачно
    ВремяПогодаТемператураВлажностьДавлениеВетер, м/сВероятность осадков
    02:00Облачно с прояснениями+15°C81 %746 мм1.1 м/с2 %
    05:00Облачно с прояснениями+15°C81 %747 мм1.1 м/с2 %
    08:00Практически безоблачно+20°C65 %748 мм2.0 м/с1 %
    11:00Практически безоблачно+24°C49 %747 мм2.0 м/с3 %
    14:00Ясно и безоблачно+26°C43 %747 мм2.1 м/с4 %
    17:00Практически безоблачно+27°C40 %746 мм2.5 м/с3 %
    20:00Ясно и безоблачно+25°C49 %746 мм1.2 м/с1 %
    23:00Небольшая облачность+19°C74 %747 мм1.5 м/с2 %
  • 16июля
    Вторник
    +19°
    +30°
    Ясно и безоблачно
    ВремяПогодаТемператураВлажностьДавлениеВетер, м/сВероятность осадков
    02:00Ясно и безоблачно+17°C76 %747 мм1.2 м/с2 %
    05:00Ясно и безоблачно+17°C84 %747 мм1.1 м/с2 %
    08:00Ясно и безоблачно+24°C70 %747 мм1.9 м/с2 %
    11:00Ясно и безоблачно+28°C49 %747 мм3.4 м/с2 %
    14:00Ясно и безоблачно+29°C40 %746 мм3.4 м/с2 %
    17:00Ясно и безоблачно+30°C38 %744 мм3.6 м/с3 %
    20:00Облачно с прояснениями+27°C59 %745 мм3.4 м/с28 %
    23:00Облачно с прояснениями, ливень+22°C93 %744 мм2.3 м/с70 %
  • 17июля
    Среда
    +15°
    +27°
    Ясно и безоблачно
    ВремяПогодаТемператураВлажностьДавлениеВетер, м/сВероятность осадков
    02:00Пасмурно, дождь+20°C98 %743 мм2.0 м/с59 %
    05:00Пасмурно, небольшой дождь+19°C97 %744 мм2.0 м/с53 %
    08:00Небольшая облачность+21°C87 %745 мм3.5 м/с32 %
    11:00Облачно с прояснениями+24°C60 %747 мм4.3 м/с27 %
    14:00Ясно и безоблачно+26°C47 %747 мм4.0 м/с12 %
    17:00Ясно и безоблачно+26°C42 %747 мм4.0 м/с7 %
    20:00Ясно и безоблачно+24°C51 %748 мм1.8 м/с3 %
    23:00Облачно с прояснениями+20°C74 %749 мм1.7 м/с3 %
  • 18июля
    Четверг
    +13°
    +26°
    Небольшая облачность
    ВремяПогодаТемператураВлажностьДавлениеВетер, м/сВероятность осадков
    02:00Ясно и безоблачно+17°C89 %749 мм0.8 м/с2 %
    05:00Ясно и безоблачно+16°C95 %750 мм1.1 м/с2 %
    08:00Ясно и безоблачно+21°C66 %750 мм2.7 м/с2 %
    11:00Практически безоблачно+23°C48 %751 мм4.0 м/с14 %
    14:00Небольшая облачность+26°C37 %750 мм4.1 м/с13 %
    17:00Небольшая облачность+24°C38 %750 мм4.2 м/с6 %
    20:00Облачно с прояснениями+22°C51 %750 мм2.5 м/с2 %
    23:00Практически безоблачно+17°C75 %750 мм1.6 м/с2 %
  • 19июля
    Пятница
    +11°
    +24°
    Ясно и безоблачно
    ВремяПогодаТемператураВлажностьДавлениеВетер, м/сВероятность осадков
    02:00Облачно с прояснениями+15°C84 %750 мм1.4 м/с2 %
    05:00Небольшая облачность+13°C82 %750 мм1.6 м/с2 %
    08:00Ясно и безоблачно+18°C68 %750 мм3.0 м/с2 %
    11:00Ясно и безоблачно+22°C50 %750 мм4.3 м/с8 %
    14:00Ясно и безоблачно+24°C42 %749 мм4.3 м/с7 %
    17:00Ясно и безоблачно+23°C36 %748 мм4.6 м/с4 %
    20:00Ясно и безоблачно+21°C54 %748 мм2.7 м/с2 %
    23:00Ясно и безоблачно+15°C77 %748 мм2.0 м/с2 %
Мы используем cookies
Соглашаюсь